Terminal Aerodrome Forecast
Issued by NWS Missoula, MT

Home | Current Version | Previous Version | Text Only | Print | Product List | Glossary On
Versions: 1 2 3 4 5 6 7 8 9 10 11 12 13 14 15 16 17 18 19 20 21 22 23 24 25 26 27 28 29 30
000
FTUS45 KMSO 282134 AAC
TAFMSO
TAF AMD
KMSO 282134Z 2822/2918 15008KT 3/4SM -SN BR VV015
     FM282300 10010G15KT 2SM -SN BR OVC010
     FM290300 11018G25KT 2SM -SN BLSN BKN015 OVC030=

USA.gov is the U.S. government's official web portal to all federal, state and local government web resources and services.